sensor_id;sensor_type;location;lat;lon;timestamp;temperature;humidity
46932;DHT22;32670;51.464;11.964;2022-10-31T00:00:56;25.20;56.20
46932;DHT22;32670;51.464;11.964;2022-10-31T00:03:22;25.20;56.10
46932;DHT22;32670;51.464;11.964;2022-10-31T00:05:49;25.10;56.10
46932;DHT22;32670;51.464;11.964;2022-10-31T00:08:16;25.20;56.10
46932;DHT22;32670;51.464;11.964;2022-10-31T00:10:43;25.20;56.10
46932;DHT22;32670;51.464;11.964;2022-10-31T00:13:10;25.20;56.10
46932;DHT22;32670;51.464;11.964;2022-10-31T00:15:37;25.10;56.00
46932;DHT22;32670;51.464;11.964;2022-10-31T00:18:04;25.10;56.60
46932;DHT22;32670;51.464;11.964;2022-10-31T00:20:30;25.10;55.90
46932;DHT22;32670;51.464;11.964;2022-10-31T00:22:59;25.20;56.00
46932;DHT22;32670;51.464;11.964;2022-10-31T00:25:25;25.20;56.00
46932;DHT22;32670;51.464;11.964;2022-10-31T00:27:51;25.20;56.00
46932;DHT22;32670;51.464;11.964;2022-10-31T00:30:16;25.20;56.00
46932;DHT22;32670;51.464;11.964;2022-10-31T00:32:42;25.10;56.00
46932;DHT22;32670;51.464;11.964;2022-10-31T00:35:07;25.10;55.90
46932;DHT22;32670;51.464;11.964;2022-10-31T00:37:33;25.10;55.90
46932;DHT22;32670;51.464;11.964;2022-10-31T00:39:58;25.20;55.90
46932;DHT22;32670;51.464;11.964;2022-10-31T00:42:24;25.10;55.80
46932;DHT22;32670;51.464;11.964;2022-10-31T00:44:49;25.20;55.90
46932;DHT22;32670;51.464;11.964;2022-10-31T00:47:15;25.10;55.80
46932;DHT22;32670;51.464;11.964;2022-10-31T00:49:40;25.10;55.80
46932;DHT22;32670;51.464;11.964;2022-10-31T00:52:06;25.10;55.80
46932;DHT22;32670;51.464;11.964;2022-10-31T00:54:31;25.10;55.80
46932;DHT22;32670;51.464;11.964;2022-10-31T00:56:57;25.10;55.80
46932;DHT22;32670;51.464;11.964;2022-10-31T00:59:22;25.10;55.80
46932;DHT22;32670;51.464;11.964;2022-10-31T01:01:48;25.10;55.70
46932;DHT22;32670;51.464;11.964;2022-10-31T01:04:14;25.10;55.70
46932;DHT22;32670;51.464;11.964;2022-10-31T01:06:39;25.10;55.80
46932;DHT22;32670;51.464;11.964;2022-10-31T01:09:05;25.10;55.80
46932;DHT22;32670;51.464;11.964;2022-10-31T01:11:30;25.10;55.70
46932;DHT22;32670;51.464;11.964;2022-10-31T01:13:56;25.10;55.70
46932;DHT22;32670;51.464;11.964;2022-10-31T01:16:24;25.10;55.70
46932;DHT22;32670;51.464;11.964;2022-10-31T01:18:50;25.00;55.70
46932;DHT22;32670;51.464;11.964;2022-10-31T01:21:19;25.00;55.70
46932;DHT22;32670;51.464;11.964;2022-10-31T01:23:45;25.10;55.70
46932;DHT22;32670;51.464;11.964;2022-10-31T01:28:38;25.10;55.70
46932;DHT22;32670;51.464;11.964;2022-10-31T01:31:07;25.00;55.60
46932;DHT22;32670;51.464;11.964;2022-10-31T01:33:33;25.10;55.70
46932;DHT22;32670;51.464;11.964;2022-10-31T01:35:59;25.00;55.60
46932;DHT22;32670;51.464;11.964;2022-10-31T01:38:25;25.00;55.60
46932;DHT22;32670;51.464;11.964;2022-10-31T01:40:51;25.00;55.60
46932;DHT22;32670;51.464;11.964;2022-10-31T01:43:17;25.00;55.60
46932;DHT22;32670;51.464;11.964;2022-10-31T01:45:44;25.00;55.50
46932;DHT22;32670;51.464;11.964;2022-10-31T01:48:14;25.00;55.60
46932;DHT22;32670;51.464;11.964;2022-10-31T01:50:41;25.00;55.50
46932;DHT22;32670;51.464;11.964;2022-10-31T01:53:09;25.00;55.50
46932;DHT22;32670;51.464;11.964;2022-10-31T01:55:39;25.00;55.50
46932;DHT22;32670;51.464;11.964;2022-10-31T01:58:13;25.00;55.50
46932;DHT22;32670;51.464;11.964;2022-10-31T02:00:43;25.00;55.50
46932;DHT22;32670;51.464;11.964;2022-10-31T02:03:10;25.00;55.50
46932;DHT22;32670;51.464;11.964;2022-10-31T02:05:36;25.00;55.50
46932;DHT22;32670;51.464;11.964;2022-10-31T02:08:06;25.00;55.50
46932;DHT22;32670;51.464;11.964;2022-10-31T02:10:35;25.00;55.50
46932;DHT22;32670;51.464;11.964;2022-10-31T02:13:03;25.00;55.50
46932;DHT22;32670;51.464;11.964;2022-10-31T02:15:31;25.00;55.50
46932;DHT22;32670;51.464;11.964;2022-10-31T02:17:57;25.00;55.50
46932;DHT22;32670;51.464;11.964;2022-10-31T02:20:24;25.00;55.50
46932;DHT22;32670;51.464;11.964;2022-10-31T02:25:58;25.00;55.40
46932;DHT22;32670;51.464;11.964;2022-10-31T02:32:00;25.00;55.40
46932;DHT22;32670;51.464;11.964;2022-10-31T02:34:37;25.00;55.40
46932;DHT22;32670;51.464;11.964;2022-10-31T02:37:14;25.00;55.40
46932;DHT22;32670;51.464;11.964;2022-10-31T02:39:49;25.00;55.40
46932;DHT22;32670;51.464;11.964;2022-10-31T02:42:29;25.00;55.40
46932;DHT22;32670;51.464;11.964;2022-10-31T02:47:38;25.00;55.40
46932;DHT22;32670;51.464;11.964;2022-10-31T02:50:27;25.00;55.40
46932;DHT22;32670;51.464;11.964;2022-10-31T02:52:53;25.00;55.30
46932;DHT22;32670;51.464;11.964;2022-10-31T02:57:48;25.00;55.30
46932;DHT22;32670;51.464;11.964;2022-10-31T03:00:14;25.00;55.40
46932;DHT22;32670;51.464;11.964;2022-10-31T03:03:08;25.00;55.40
46932;DHT22;32670;51.464;11.964;2022-10-31T03:06:27;25.00;55.30
46932;DHT22;32670;51.464;11.964;2022-10-31T03:08:35;25.00;55.30
46932;DHT22;32670;51.464;11.964;2022-10-31T03:11:04;25.00;55.30
46932;DHT22;32670;51.464;11.964;2022-10-31T03:14:08;25.00;55.30
46932;DHT22;32670;51.464;11.964;2022-10-31T03:16:43;25.00;55.30
46932;DHT22;32670;51.464;11.964;2022-10-31T03:19:19;25.00;55.30
46932;DHT22;32670;51.464;11.964;2022-10-31T03:21:58;25.00;55.30
46932;DHT22;32670;51.464;11.964;2022-10-31T03:24:28;24.90;55.20
46932;DHT22;32670;51.464;11.964;2022-10-31T03:26:57;24.90;55.20
46932;DHT22;32670;51.464;11.964;2022-10-31T03:29:26;24.90;55.20
46932;DHT22;32670;51.464;11.964;2022-10-31T03:34:22;24.90;55.20
46932;DHT22;32670;51.464;11.964;2022-10-31T03:36:52;24.90;55.20
46932;DHT22;32670;51.464;11.964;2022-10-31T03:39:20;25.00;55.20
46932;DHT22;32670;51.464;11.964;2022-10-31T03:41:58;24.90;55.20
46932;DHT22;32670;51.464;11.964;2022-10-31T03:44:26;24.90;55.20
46932;DHT22;32670;51.464;11.964;2022-10-31T03:46:54;24.90;55.30
46932;DHT22;32670;51.464;11.964;2022-10-31T03:49:20;24.90;55.20
46932;DHT22;32670;51.464;11.964;2022-10-31T03:51:54;24.90;55.20
46932;DHT22;32670;51.464;11.964;2022-10-31T03:54:26;24.90;55.20
46932;DHT22;32670;51.464;11.964;2022-10-31T03:57:25;24.90;55.20
46932;DHT22;32670;51.464;11.964;2022-10-31T04:00:12;24.90;55.20
46932;DHT22;32670;51.464;11.964;2022-10-31T04:02:42;24.90;55.20
46932;DHT22;32670;51.464;11.964;2022-10-31T04:05:10;24.90;55.20
46932;DHT22;32670;51.464;11.964;2022-10-31T04:07:41;24.90;55.30
46932;DHT22;32670;51.464;11.964;2022-10-31T04:10:11;24.90;55.20
46932;DHT22;32670;51.464;11.964;2022-10-31T04:12:39;24.90;55.20
46932;DHT22;32670;51.464;11.964;2022-10-31T04:15:06;24.90;55.20
46932;DHT22;32670;51.464;11.964;2022-10-31T04:17:36;24.90;55.20
46932;DHT22;32670;51.464;11.964;2022-10-31T04:20:03;24.90;55.80
46932;DHT22;32670;51.464;11.964;2022-10-31T04:22:29;24.90;55.20
46932;DHT22;32670;51.464;11.964;2022-10-31T04:24:54;24.90;55.20
46932;DHT22;32670;51.464;11.964;2022-10-31T04:27:20;24.90;55.20
46932;DHT22;32670;51.464;11.964;2022-10-31T04:29:45;24.90;55.20
46932;DHT22;32670;51.464;11.964;2022-10-31T04:32:11;24.90;55.20
46932;DHT22;32670;51.464;11.964;2022-10-31T04:34:36;24.90;55.10
46932;DHT22;32670;51.464;11.964;2022-10-31T04:37:01;24.90;55.20
46932;DHT22;32670;51.464;11.964;2022-10-31T04:39:27;24.90;55.20
46932;DHT22;32670;51.464;11.964;2022-10-31T04:41:53;24.90;55.20
46932;DHT22;32670;51.464;11.964;2022-10-31T04:44:18;24.90;55.10
46932;DHT22;32670;51.464;11.964;2022-10-31T04:46:44;24.90;55.20
46932;DHT22;32670;51.464;11.964;2022-10-31T04:49:09;24.90;55.20
46932;DHT22;32670;51.464;11.964;2022-10-31T04:51:34;24.80;55.10
46932;DHT22;32670;51.464;11.964;2022-10-31T04:54:00;24.90;55.20
46932;DHT22;32670;51.464;11.964;2022-10-31T04:56:26;24.80;55.10
46932;DHT22;32670;51.464;11.964;2022-10-31T04:58:52;24.80;55.00
46932;DHT22;32670;51.464;11.964;2022-10-31T05:01:17;24.90;55.10
46932;DHT22;32670;51.464;11.964;2022-10-31T05:03:43;24.80;55.10
46932;DHT22;32670;51.464;11.964;2022-10-31T05:06:08;24.80;55.10
46932;DHT22;32670;51.464;11.964;2022-10-31T05:08:34;24.90;55.10
46932;DHT22;32670;51.464;11.964;2022-10-31T05:11:03;24.90;55.10
46932;DHT22;32670;51.464;11.964;2022-10-31T05:13:29;24.80;55.00
46932;DHT22;32670;51.464;11.964;2022-10-31T05:15:55;24.80;55.00
46932;DHT22;32670;51.464;11.964;2022-10-31T05:18:20;24.80;55.00
46932;DHT22;32670;51.464;11.964;2022-10-31T05:20:46;24.80;55.00
46932;DHT22;32670;51.464;11.964;2022-10-31T05:23:12;24.80;55.00
46932;DHT22;32670;51.464;11.964;2022-10-31T05:25:39;24.80;55.00
46932;DHT22;32670;51.464;11.964;2022-10-31T05:28:05;24.80;55.00
46932;DHT22;32670;51.464;11.964;2022-10-31T05:30:31;24.80;55.00
46932;DHT22;32670;51.464;11.964;2022-10-31T05:32:57;24.80;55.00
46932;DHT22;32670;51.464;11.964;2022-10-31T05:35:26;24.80;55.00
46932;DHT22;32670;51.464;11.964;2022-10-31T05:37:52;24.80;55.00
46932;DHT22;32670;51.464;11.964;2022-10-31T05:40:19;24.80;55.20
46932;DHT22;32670;51.464;11.964;2022-10-31T05:42:45;24.80;55.10
46932;DHT22;32670;51.464;11.964;2022-10-31T05:45:13;24.80;55.10
46932;DHT22;32670;51.464;11.964;2022-10-31T05:47:39;24.80;55.00
46932;DHT22;32670;51.464;11.964;2022-10-31T05:50:06;24.80;55.30
46932;DHT22;32670;51.464;11.964;2022-10-31T05:52:32;24.80;55.20
46932;DHT22;32670;51.464;11.964;2022-10-31T05:54:57;24.80;55.00
46932;DHT22;32670;51.464;11.964;2022-10-31T05:57:23;24.80;55.00
46932;DHT22;32670;51.464;11.964;2022-10-31T05:59:48;24.80;55.00
46932;DHT22;32670;51.464;11.964;2022-10-31T06:02:14;24.80;55.00
46932;DHT22;32670;51.464;11.964;2022-10-31T06:04:39;24.80;55.00
46932;DHT22;32670;51.464;11.964;2022-10-31T06:07:05;24.80;55.00
46932;DHT22;32670;51.464;11.964;2022-10-31T06:09:30;24.80;55.00
46932;DHT22;32670;51.464;11.964;2022-10-31T06:11:56;24.80;55.00
46932;DHT22;32670;51.464;11.964;2022-10-31T06:14:21;24.80;55.00
46932;DHT22;32670;51.464;11.964;2022-10-31T06:16:47;24.80;55.00
46932;DHT22;32670;51.464;11.964;2022-10-31T06:19:12;24.80;54.90
46932;DHT22;32670;51.464;11.964;2022-10-31T06:21:38;24.80;54.90
46932;DHT22;32670;51.464;11.964;2022-10-31T06:24:03;24.80;54.90
46932;DHT22;32670;51.464;11.964;2022-10-31T06:26:29;24.80;55.30
46932;DHT22;32670;51.464;11.964;2022-10-31T06:28:55;24.80;55.70
46932;DHT22;32670;51.464;11.964;2022-10-31T06:31:20;24.80;55.60
46932;DHT22;32670;51.464;11.964;2022-10-31T06:33:46;24.80;55.40
46932;DHT22;32670;51.464;11.964;2022-10-31T06:36:11;24.80;55.30
46932;DHT22;32670;51.464;11.964;2022-10-31T06:38:37;24.80;55.30
46932;DHT22;32670;51.464;11.964;2022-10-31T06:41:03;24.70;44.80
46932;DHT22;32670;51.464;11.964;2022-10-31T06:43:29;24.40;43.60
46932;DHT22;32670;51.464;11.964;2022-10-31T06:45:55;24.30;48.20
46932;DHT22;32670;51.464;11.964;2022-10-31T06:48:21;24.40;49.40
46932;DHT22;32670;51.464;11.964;2022-10-31T06:50:46;24.50;50.10
46932;DHT22;32670;51.464;11.964;2022-10-31T06:53:12;24.60;49.60
46932;DHT22;32670;51.464;11.964;2022-10-31T06:55:40;24.60;49.70
46932;DHT22;32670;51.464;11.964;2022-10-31T06:58:06;24.70;49.90
46932;DHT22;32670;51.464;11.964;2022-10-31T07:00:32;24.70;50.00
46932;DHT22;32670;51.464;11.964;2022-10-31T07:03:03;24.80;50.10
46932;DHT22;32670;51.464;11.964;2022-10-31T07:05:29;24.80;50.20
46932;DHT22;32670;51.464;11.964;2022-10-31T07:07:56;24.80;50.40
46932;DHT22;32670;51.464;11.964;2022-10-31T07:10:23;24.80;50.50
46932;DHT22;32670;51.464;11.964;2022-10-31T07:12:57;24.80;50.80
46932;DHT22;32670;51.464;11.964;2022-10-31T07:15:24;24.80;51.00
46932;DHT22;32670;51.464;11.964;2022-10-31T07:17:50;24.80;51.00
46932;DHT22;32670;51.464;11.964;2022-10-31T07:20:15;24.90;51.70
46932;DHT22;32670;51.464;11.964;2022-10-31T07:22:41;24.90;52.20
46932;DHT22;32670;51.464;11.964;2022-10-31T07:25:07;25.00;52.00
46932;DHT22;32670;51.464;11.964;2022-10-31T07:27:37;25.00;52.40
46932;DHT22;32670;51.464;11.964;2022-10-31T07:30:03;25.00;52.20
46932;DHT22;32670;51.464;11.964;2022-10-31T07:32:37;25.00;52.20
46932;DHT22;32670;51.464;11.964;2022-10-31T07:35:03;25.00;52.10
46932;DHT22;32670;51.464;11.964;2022-10-31T07:37:28;25.00;48.90
46932;DHT22;32670;51.464;11.964;2022-10-31T07:39:54;25.00;48.30
46932;DHT22;32670;51.464;11.964;2022-10-31T07:42:19;24.90;48.30
46932;DHT22;32670;51.464;11.964;2022-10-31T07:44:45;24.90;49.80
46932;DHT22;32670;51.464;11.964;2022-10-31T07:47:10;24.90;50.80
46932;DHT22;32670;51.464;11.964;2022-10-31T07:49:36;24.90;50.70
46932;DHT22;32670;51.464;11.964;2022-10-31T07:52:01;24.90;50.80
46932;DHT22;32670;51.464;11.964;2022-10-31T07:54:27;24.90;50.70
46932;DHT22;32670;51.464;11.964;2022-10-31T07:56:52;24.90;50.90
46932;DHT22;32670;51.464;11.964;2022-10-31T07:59:18;24.90;51.00
46932;DHT22;32670;51.464;11.964;2022-10-31T08:01:43;24.90;51.70
46932;DHT22;32670;51.464;11.964;2022-10-31T08:04:09;25.00;52.30
46932;DHT22;32670;51.464;11.964;2022-10-31T08:06:34;24.90;52.30
46932;DHT22;32670;51.464;11.964;2022-10-31T08:08:59;25.00;52.40
46932;DHT22;32670;51.464;11.964;2022-10-31T08:11:25;25.00;52.50
46932;DHT22;32670;51.464;11.964;2022-10-31T08:13:50;25.00;52.60
46932;DHT22;32670;51.464;11.964;2022-10-31T08:16:16;25.00;52.40
46932;DHT22;32670;51.464;11.964;2022-10-31T08:18:41;25.00;52.20
46932;DHT22;32670;51.464;11.964;2022-10-31T08:21:07;25.00;52.20
46932;DHT22;32670;51.464;11.964;2022-10-31T08:23:32;25.00;52.70
46932;DHT22;32670;51.464;11.964;2022-10-31T08:25:58;25.00;52.70
46932;DHT22;32670;51.464;11.964;2022-10-31T08:28:23;25.00;52.90
46932;DHT22;32670;51.464;11.964;2022-10-31T08:30:49;25.00;53.00
46932;DHT22;32670;51.464;11.964;2022-10-31T08:33:17;25.00;52.90
46932;DHT22;32670;51.464;11.964;2022-10-31T08:35:43;25.00;52.90
46932;DHT22;32670;51.464;11.964;2022-10-31T08:38:10;25.10;53.70
46932;DHT22;32670;51.464;11.964;2022-10-31T08:40:36;25.10;53.20
46932;DHT22;32670;51.464;11.964;2022-10-31T08:43:06;25.10;52.60
46932;DHT22;32670;51.464;11.964;2022-10-31T08:45:34;25.10;52.90
46932;DHT22;32670;51.464;11.964;2022-10-31T08:48:02;25.10;53.10
46932;DHT22;32670;51.464;11.964;2022-10-31T08:50:29;25.10;52.70
46932;DHT22;32670;51.464;11.964;2022-10-31T08:53:03;25.10;52.80
46932;DHT22;32670;51.464;11.964;2022-10-31T08:55:29;25.10;53.10
46932;DHT22;32670;51.464;11.964;2022-10-31T08:57:56;25.10;53.10
46932;DHT22;32670;51.464;11.964;2022-10-31T09:00:22;25.10;53.10
46932;DHT22;32670;51.464;11.964;2022-10-31T09:02:47;25.10;53.30
46932;DHT22;32670;51.464;11.964;2022-10-31T09:05:13;25.10;53.60
46932;DHT22;32670;51.464;11.964;2022-10-31T09:07:38;25.20;53.20
46932;DHT22;32670;51.464;11.964;2022-10-31T09:10:04;25.20;53.00
46932;DHT22;32670;51.464;11.964;2022-10-31T09:12:30;25.10;52.70
46932;DHT22;32670;51.464;11.964;2022-10-31T09:14:55;25.20;53.10
46932;DHT22;32670;51.464;11.964;2022-10-31T09:17:21;25.20;53.10
46932;DHT22;32670;51.464;11.964;2022-10-31T09:19:46;25.30;53.40
46932;DHT22;32670;51.464;11.964;2022-10-31T09:22:12;25.30;53.30
46932;DHT22;32670;51.464;11.964;2022-10-31T09:24:37;25.30;53.30
46932;DHT22;32670;51.464;11.964;2022-10-31T09:27:03;25.30;53.20
46932;DHT22;32670;51.464;11.964;2022-10-31T09:29:28;25.30;53.30
46932;DHT22;32670;51.464;11.964;2022-10-31T09:31:56;25.30;53.30
46932;DHT22;32670;51.464;11.964;2022-10-31T09:34:21;25.40;53.40
46932;DHT22;32670;51.464;11.964;2022-10-31T09:36:47;25.40;53.40
46932;DHT22;32670;51.464;11.964;2022-10-31T09:39:12;25.40;53.40
46932;DHT22;32670;51.464;11.964;2022-10-31T09:47:15;25.40;53.30
46932;DHT22;32670;51.464;11.964;2022-10-31T09:52:28;25.40;53.20
46932;DHT22;32670;51.464;11.964;2022-10-31T09:55:25;25.40;53.00
46932;DHT22;32670;51.464;11.964;2022-10-31T09:57:48;25.50;53.20
46932;DHT22;32670;51.464;11.964;2022-10-31T10:00:19;25.50;53.30
46932;DHT22;32670;51.464;11.964;2022-10-31T10:02:57;25.50;53.30
46932;DHT22;32670;51.464;11.964;2022-10-31T10:08:16;25.50;53.40
46932;DHT22;32670;51.464;11.964;2022-10-31T10:21:16;25.60;53.90
46932;DHT22;32670;51.464;11.964;2022-10-31T10:23:59;25.60;54.00
46932;DHT22;32670;51.464;11.964;2022-10-31T10:26:46;25.60;53.90
46932;DHT22;32670;51.464;11.964;2022-10-31T10:29:32;25.60;54.20
46932;DHT22;32670;51.464;11.964;2022-10-31T10:32:01;25.70;54.20
46932;DHT22;32670;51.464;11.964;2022-10-31T10:34:37;25.60;54.30
46932;DHT22;32670;51.464;11.964;2022-10-31T10:37:36;25.60;55.10
46932;DHT22;32670;51.464;11.964;2022-10-31T10:42:36;25.70;54.80
46932;DHT22;32670;51.464;11.964;2022-10-31T10:45:21;25.70;54.70
46932;DHT22;32670;51.464;11.964;2022-10-31T10:48:16;25.70;54.80
46932;DHT22;32670;51.464;11.964;2022-10-31T10:50:48;25.70;54.70
46932;DHT22;32670;51.464;11.964;2022-10-31T10:53:32;25.80;54.60
46932;DHT22;32670;51.464;11.964;2022-10-31T10:56:40;25.80;54.70
46932;DHT22;32670;51.464;11.964;2022-10-31T10:59:13;25.80;54.70
46932;DHT22;32670;51.464;11.964;2022-10-31T11:01:41;25.80;52.70
46932;DHT22;32670;51.464;11.964;2022-10-31T11:04:29;25.60;51.90
46932;DHT22;32670;51.464;11.964;2022-10-31T11:07:05;25.60;50.90
46932;DHT22;32670;51.464;11.964;2022-10-31T11:09:32;25.40;50.80
46932;DHT22;32670;51.464;11.964;2022-10-31T11:11:58;25.30;52.10
46932;DHT22;32670;51.464;11.964;2022-10-31T11:14:25;25.40;52.20
46932;DHT22;32670;51.464;11.964;2022-10-31T11:17:16;25.50;52.30
46932;DHT22;32670;51.464;11.964;2022-10-31T11:19:43;25.50;52.50
46932;DHT22;32670;51.464;11.964;2022-10-31T11:22:15;25.60;52.70
46932;DHT22;32670;51.464;11.964;2022-10-31T11:24:41;25.60;52.40
46932;DHT22;32670;51.464;11.964;2022-10-31T11:27:20;25.70;52.60
46932;DHT22;32670;51.464;11.964;2022-10-31T11:29:46;25.70;52.50
46932;DHT22;32670;51.464;11.964;2022-10-31T11:32:24;25.70;52.80
46932;DHT22;32670;51.464;11.964;2022-10-31T11:34:57;25.70;52.60
46932;DHT22;32670;51.464;11.964;2022-10-31T11:37:29;25.80;52.70
46932;DHT22;32670;51.464;11.964;2022-10-31T11:39:58;25.80;52.80
46932;DHT22;32670;51.464;11.964;2022-10-31T11:42:35;25.80;53.00
46932;DHT22;32670;51.464;11.964;2022-10-31T11:45:12;25.80;52.90
46932;DHT22;32670;51.464;11.964;2022-10-31T11:47:42;25.80;53.00
46932;DHT22;32670;51.464;11.964;2022-10-31T11:50:22;25.80;53.00
46932;DHT22;32670;51.464;11.964;2022-10-31T11:52:49;25.80;53.00
46932;DHT22;32670;51.464;11.964;2022-10-31T11:55:28;25.90;53.20
46932;DHT22;32670;51.464;11.964;2022-10-31T11:57:55;25.90;53.20
46932;DHT22;32670;51.464;11.964;2022-10-31T12:00:32;25.90;53.20
46932;DHT22;32670;51.464;11.964;2022-10-31T12:06:00;25.90;53.30
46932;DHT22;32670;51.464;11.964;2022-10-31T12:08:30;25.90;53.40
46932;DHT22;32670;51.464;11.964;2022-10-31T12:11:26;25.90;53.40
46932;DHT22;32670;51.464;11.964;2022-10-31T12:20:05;25.90;53.60
46932;DHT22;32670;51.464;11.964;2022-10-31T12:25:38;25.90;53.90
46932;DHT22;32670;51.464;11.964;2022-10-31T12:34:12;25.90;53.90
46932;DHT22;32670;51.464;11.964;2022-10-31T12:39:23;25.90;54.00
46932;DHT22;32670;51.464;11.964;2022-10-31T12:48:13;25.90;54.50
46932;DHT22;32670;51.464;11.964;2022-10-31T13:01:47;25.90;54.30
46932;DHT22;32670;51.464;11.964;2022-10-31T13:07:11;25.90;54.30
46932;DHT22;32670;51.464;11.964;2022-10-31T13:09:45;25.90;53.80
46932;DHT22;32670;51.464;11.964;2022-10-31T13:12:16;25.80;53.20
46932;DHT22;32670;51.464;11.964;2022-10-31T13:14:53;25.80;53.00
46932;DHT22;32670;51.464;11.964;2022-10-31T13:17:42;25.80;52.80
46932;DHT22;32670;51.464;11.964;2022-10-31T13:20:23;25.80;52.80
46932;DHT22;32670;51.464;11.964;2022-10-31T13:22:53;25.80;52.60
46932;DHT22;32670;51.464;11.964;2022-10-31T13:25:24;25.70;52.80
46932;DHT22;32670;51.464;11.964;2022-10-31T13:28:37;25.70;52.60
46932;DHT22;32670;51.464;11.964;2022-10-31T13:31:03;25.70;52.70
46932;DHT22;32670;51.464;11.964;2022-10-31T13:36:26;25.60;52.30
46932;DHT22;32670;51.464;11.964;2022-10-31T13:39:09;25.60;52.20
46932;DHT22;32670;51.464;11.964;2022-10-31T13:42:02;25.50;52.20
46932;DHT22;32670;51.464;11.964;2022-10-31T13:44:30;25.60;52.20
46932;DHT22;32670;51.464;11.964;2022-10-31T13:46:57;25.60;52.30
46932;DHT22;32670;51.464;11.964;2022-10-31T13:54:47;25.50;52.50
46932;DHT22;32670;51.464;11.964;2022-10-31T13:59:56;25.50;52.70
46932;DHT22;32670;51.464;11.964;2022-10-31T14:02:33;25.40;52.90
46932;DHT22;32670;51.464;11.964;2022-10-31T14:05:02;25.40;53.20
46932;DHT22;32670;51.464;11.964;2022-10-31T14:07:29;25.40;53.00
46932;DHT22;32670;51.464;11.964;2022-10-31T14:12:41;25.40;53.30
46932;DHT22;32670;51.464;11.964;2022-10-31T14:15:22;25.40;53.30
46932;DHT22;32670;51.464;11.964;2022-10-31T14:18:01;25.40;53.30
46932;DHT22;32670;51.464;11.964;2022-10-31T14:20:41;25.40;53.30
46932;DHT22;32670;51.464;11.964;2022-10-31T14:25:54;25.40;53.50
46932;DHT22;32670;51.464;11.964;2022-10-31T14:28:34;25.30;53.40
46932;DHT22;32670;51.464;11.964;2022-10-31T14:31:00;25.30;53.40
46932;DHT22;32670;51.464;11.964;2022-10-31T14:33:28;25.30;53.50
46932;DHT22;32670;51.464;11.964;2022-10-31T14:36:06;25.30;53.50
46932;DHT22;32670;51.464;11.964;2022-10-31T14:47:14;25.20;53.70
46932;DHT22;32670;51.464;11.964;2022-10-31T14:50:14;25.20;53.70
46932;DHT22;32670;51.464;11.964;2022-10-31T14:52:47;25.20;53.80
46932;DHT22;32670;51.464;11.964;2022-10-31T14:55:14;25.20;53.70
46932;DHT22;32670;51.464;11.964;2022-10-31T14:57:54;25.20;53.70
46932;DHT22;32670;51.464;11.964;2022-10-31T15:00:22;25.10;53.60
46932;DHT22;32670;51.464;11.964;2022-10-31T15:05:31;25.10;53.70
46932;DHT22;32670;51.464;11.964;2022-10-31T15:07:58;25.10;53.70
46932;DHT22;32670;51.464;11.964;2022-10-31T15:10:31;25.10;53.80
46932;DHT22;32670;51.464;11.964;2022-10-31T15:13:18;25.00;53.90
46932;DHT22;32670;51.464;11.964;2022-10-31T15:15:45;25.00;54.00
46932;DHT22;32670;51.464;11.964;2022-10-31T15:18:25;25.00;54.00
46932;DHT22;32670;51.464;11.964;2022-10-31T15:20:53;25.00;54.10
46932;DHT22;32670;51.464;11.964;2022-10-31T15:23:25;25.00;54.10
46932;DHT22;32670;51.464;11.964;2022-10-31T15:26:02;25.00;54.10
46932;DHT22;32670;51.464;11.964;2022-10-31T15:28:29;25.00;54.10
46932;DHT22;32670;51.464;11.964;2022-10-31T15:30:58;25.00;54.20
46932;DHT22;32670;51.464;11.964;2022-10-31T15:33:31;24.90;54.10
46932;DHT22;32670;51.464;11.964;2022-10-31T15:35:59;24.90;54.20
46932;DHT22;32670;51.464;11.964;2022-10-31T15:38:26;24.90;54.30
46932;DHT22;32670;51.464;11.964;2022-10-31T15:41:05;24.90;54.30
46932;DHT22;32670;51.464;11.964;2022-10-31T15:43:38;24.80;54.20
46932;DHT22;32670;51.464;11.964;2022-10-31T15:46:07;24.80;54.30
46932;DHT22;32670;51.464;11.964;2022-10-31T15:48:34;24.80;54.20
46932;DHT22;32670;51.464;11.964;2022-10-31T15:51:01;24.80;54.20
46932;DHT22;32670;51.464;11.964;2022-10-31T15:56:18;24.80;54.30
46932;DHT22;32670;51.464;11.964;2022-10-31T15:58:47;24.80;54.50
46932;DHT22;32670;51.464;11.964;2022-10-31T16:01:31;24.80;55.10
46932;DHT22;32670;51.464;11.964;2022-10-31T16:06:37;24.90;54.90
46932;DHT22;32670;51.464;11.964;2022-10-31T16:09:18;24.90;54.90
46932;DHT22;32670;51.464;11.964;2022-10-31T16:11:45;24.90;54.90
46932;DHT22;32670;51.464;11.964;2022-10-31T16:16:51;25.00;55.10
46932;DHT22;32670;51.464;11.964;2022-10-31T16:19:27;25.00;55.10
46932;DHT22;32670;51.464;11.964;2022-10-31T16:21:56;25.00;55.20
46932;DHT22;32670;51.464;11.964;2022-10-31T16:24:32;24.90;55.30
46932;DHT22;32670;51.464;11.964;2022-10-31T16:27:18;24.90;55.30
46932;DHT22;32670;51.464;11.964;2022-10-31T16:29:46;25.00;55.50
46932;DHT22;32670;51.464;11.964;2022-10-31T16:37:37;25.00;55.90
46932;DHT22;32670;51.464;11.964;2022-10-31T16:40:03;25.00;56.10
46932;DHT22;32670;51.464;11.964;2022-10-31T16:42:29;25.00;56.30
46932;DHT22;32670;51.464;11.964;2022-10-31T16:44:54;25.00;56.70
46932;DHT22;32670;51.464;11.964;2022-10-31T16:47:20;25.00;56.60
46932;DHT22;32670;51.464;11.964;2022-10-31T16:49:49;25.10;57.00
46932;DHT22;32670;51.464;11.964;2022-10-31T16:52:15;25.10;56.70
46932;DHT22;32670;51.464;11.964;2022-10-31T16:54:41;25.10;56.70
46932;DHT22;32670;51.464;11.964;2022-10-31T16:57:14;25.10;56.70
46932;DHT22;32670;51.464;11.964;2022-10-31T16:59:41;25.10;56.70
46932;DHT22;32670;51.464;11.964;2022-10-31T17:02:13;25.10;56.80
46932;DHT22;32670;51.464;11.964;2022-10-31T17:04:39;25.10;56.80
46932;DHT22;32670;51.464;11.964;2022-10-31T17:07:05;25.10;56.80
46932;DHT22;32670;51.464;11.964;2022-10-31T17:09:30;25.10;56.80
46932;DHT22;32670;51.464;11.964;2022-10-31T17:11:56;25.10;56.70
46932;DHT22;32670;51.464;11.964;2022-10-31T17:14:21;25.10;56.60
46932;DHT22;32670;51.464;11.964;2022-10-31T17:16:47;25.10;56.70
46932;DHT22;32670;51.464;11.964;2022-10-31T17:19:12;25.10;56.70
46932;DHT22;32670;51.464;11.964;2022-10-31T17:21:38;25.10;57.00
46932;DHT22;32670;51.464;11.964;2022-10-31T17:24:04;25.10;56.80
46932;DHT22;32670;51.464;11.964;2022-10-31T17:26:30;25.10;56.80
46932;DHT22;32670;51.464;11.964;2022-10-31T17:28:56;25.20;56.90
46932;DHT22;32670;51.464;11.964;2022-10-31T17:31:25;25.20;56.80
46932;DHT22;32670;51.464;11.964;2022-10-31T17:33:54;25.20;56.90